sensor_id;sensor_type;location;lat;lon;timestamp;pressure;altitude;pressure_sealevel;temperature;humidity
31331;BME280;34067;39.548;-76.088;2023-02-22T00:01:36;100722.65;;;10.22;39.97
31331;BME280;34067;39.548;-76.088;2023-02-22T00:04:06;100720.50;;;10.43;38.86
31331;BME280;34067;39.548;-76.088;2023-02-22T00:06:34;100731.34;;;10.97;38.18
31331;BME280;34067;39.548;-76.088;2023-02-22T00:09:03;100733.23;;;10.12;37.97
31331;BME280;34067;39.548;-76.088;2023-02-22T00:11:31;100738.19;;;10.58;37.53
31331;BME280;34067;39.548;-76.088;2023-02-22T00:13:59;100743.36;;;10.71;37.44
31331;BME280;34067;39.548;-76.088;2023-02-22T00:16:28;100762.28;;;9.39;37.25
31331;BME280;34067;39.548;-76.088;2023-02-22T00:18:56;100768.96;;;9.95;37.77
31331;BME280;34067;39.548;-76.088;2023-02-22T00:21:24;100773.76;;;9.36;37.76
31331;BME280;34067;39.548;-76.088;2023-02-22T00:23:52;100778.63;;;9.55;37.26
31331;BME280;34067;39.548;-76.088;2023-02-22T00:26:21;100783.73;;;10.01;36.43
31331;BME280;34067;39.548;-76.088;2023-02-22T00:28:52;100794.89;;;9.78;36.73
31331;BME280;34067;39.548;-76.088;2023-02-22T00:31:21;100799.57;;;10.18;36.22
31331;BME280;34067;39.548;-76.088;2023-02-22T00:33:49;100801.56;;;10.52;35.73
31331;BME280;34067;39.548;-76.088;2023-02-22T00:36:18;100802.43;;;10.75;35.20
31331;BME280;34067;39.548;-76.088;2023-02-22T00:38:46;100806.79;;;10.92;34.38
31331;BME280;34067;39.548;-76.088;2023-02-22T00:41:14;100828.39;;;10.43;34.86
31331;BME280;34067;39.548;-76.088;2023-02-22T00:43:42;100837.82;;;9.45;35.24
31331;BME280;34067;39.548;-76.088;2023-02-22T00:46:12;100842.08;;;10.60;34.24
31331;BME280;34067;39.548;-76.088;2023-02-22T00:48:40;100857.41;;;9.78;34.36
31331;BME280;34067;39.548;-76.088;2023-02-22T00:51:08;100865.31;;;9.76;34.07
31331;BME280;34067;39.548;-76.088;2023-02-22T00:53:37;100869.44;;;10.96;33.29
31331;BME280;34067;39.548;-76.088;2023-02-22T00:56:06;100881.14;;;9.76;34.03
31331;BME280;34067;39.548;-76.088;2023-02-22T00:58:35;100872.47;;;11.21;32.73
31331;BME280;34067;39.548;-76.088;2023-02-22T01:01:04;100889.66;;;10.38;33.47
31331;BME280;34067;39.548;-76.088;2023-02-22T01:03:32;100899.76;;;10.13;33.19
31331;BME280;34067;39.548;-76.088;2023-02-22T01:06:00;100903.62;;;8.92;33.89
31331;BME280;34067;39.548;-76.088;2023-02-22T01:08:28;100904.60;;;10.09;33.23
31331;BME280;34067;39.548;-76.088;2023-02-22T01:10:56;100899.56;;;9.22;31.60
31331;BME280;34067;39.548;-76.088;2023-02-22T01:13:25;100900.35;;;9.55;32.69
31331;BME280;34067;39.548;-76.088;2023-02-22T01:15:53;100911.31;;;9.74;32.22
31331;BME280;34067;39.548;-76.088;2023-02-22T01:18:21;100924.38;;;9.65;32.17
31331;BME280;34067;39.548;-76.088;2023-02-22T01:20:49;100934.60;;;8.62;32.25
31331;BME280;34067;39.548;-76.088;2023-02-22T01:23:18;100940.93;;;9.68;31.19
31331;BME280;34067;39.548;-76.088;2023-02-22T01:25:45;100946.48;;;9.09;30.82
31331;BME280;34067;39.548;-76.088;2023-02-22T01:28:14;100952.77;;;8.34;31.08
31331;BME280;34067;39.548;-76.088;2023-02-22T01:30:42;100956.67;;;9.02;31.20
31331;BME280;34067;39.548;-76.088;2023-02-22T01:33:10;100961.66;;;8.60;30.56
31331;BME280;34067;39.548;-76.088;2023-02-22T01:35:38;100966.25;;;8.75;29.69
31331;BME280;34067;39.548;-76.088;2023-02-22T01:38:07;100973.19;;;9.09;29.36
31331;BME280;34067;39.548;-76.088;2023-02-22T01:40:37;100977.99;;;10.05;28.35
31331;BME280;34067;39.548;-76.088;2023-02-22T01:43:15;100981.91;;;9.62;27.33
31331;BME280;34067;39.548;-76.088;2023-02-22T01:45:48;100983.93;;;9.74;27.56
31331;BME280;34067;39.548;-76.088;2023-02-22T01:48:25;101002.21;;;9.96;26.94
31331;BME280;34067;39.548;-76.088;2023-02-22T01:50:57;101010.07;;;9.03;26.55
31331;BME280;34067;39.548;-76.088;2023-02-22T01:53:30;101001.25;;;9.18;27.16
31331;BME280;34067;39.548;-76.088;2023-02-22T01:56:02;100988.57;;;9.83;26.59
31331;BME280;34067;39.548;-76.088;2023-02-22T01:58:33;100995.34;;;9.76;26.86
31331;BME280;34067;39.548;-76.088;2023-02-22T02:01:02;100997.85;;;9.81;26.48
31331;BME280;34067;39.548;-76.088;2023-02-22T02:03:34;101016.83;;;10.58;26.60
31331;BME280;34067;39.548;-76.088;2023-02-22T02:06:07;101032.02;;;9.40;27.13
31331;BME280;34067;39.548;-76.088;2023-02-22T02:08:45;101035.69;;;8.38;27.66
31331;BME280;34067;39.548;-76.088;2023-02-22T02:11:18;101041.65;;;9.27;27.02
31331;BME280;34067;39.548;-76.088;2023-02-22T02:13:49;101043.57;;;7.75;27.76
31331;BME280;34067;39.548;-76.088;2023-02-22T02:16:17;101047.78;;;9.54;28.24
31331;BME280;34067;39.548;-76.088;2023-02-22T02:18:45;101053.92;;;8.07;27.34
31331;BME280;34067;39.548;-76.088;2023-02-22T02:21:37;101055.02;;;8.97;27.54
31331;BME280;34067;39.548;-76.088;2023-02-22T02:24:23;101058.96;;;7.63;27.28
31331;BME280;34067;39.548;-76.088;2023-02-22T02:27:09;101060.53;;;8.95;27.22
31331;BME280;34067;39.548;-76.088;2023-02-22T02:30:02;101071.22;;;7.22;26.50
31331;BME280;34067;39.548;-76.088;2023-02-22T02:32:48;101081.53;;;9.28;28.15
31331;BME280;34067;39.548;-76.088;2023-02-22T02:35:24;101080.48;;;8.63;27.70
31331;BME280;34067;39.548;-76.088;2023-02-22T02:38:00;101080.15;;;8.23;27.49
31331;BME280;34067;39.548;-76.088;2023-02-22T02:40:34;101066.79;;;8.86;27.40
31331;BME280;34067;39.548;-76.088;2023-02-22T02:43:11;101068.57;;;9.06;26.84
31331;BME280;34067;39.548;-76.088;2023-02-22T02:45:46;101084.47;;;8.13;27.07
31331;BME280;34067;39.548;-76.088;2023-02-22T02:48:20;101096.07;;;9.01;27.26
31331;BME280;34067;39.548;-76.088;2023-02-22T02:50:50;101105.21;;;8.23;28.00
31331;BME280;34067;39.548;-76.088;2023-02-22T02:53:24;101107.31;;;9.23;26.99
31331;BME280;34067;39.548;-76.088;2023-02-22T02:55:53;101110.83;;;8.60;26.39
31331;BME280;34067;39.548;-76.088;2023-02-22T02:58:23;101118.86;;;8.31;27.42
31331;BME280;34067;39.548;-76.088;2023-02-22T03:00:55;101115.40;;;8.06;27.06
31331;BME280;34067;39.548;-76.088;2023-02-22T03:04:36;101117.84;;;6.70;27.33
31331;BME280;34067;39.548;-76.088;2023-02-22T03:07:24;101119.72;;;7.55;26.83
31331;BME280;34067;39.548;-76.088;2023-02-22T03:10:07;101127.78;;;7.96;27.30
31331;BME280;34067;39.548;-76.088;2023-02-22T03:12:46;101136.16;;;8.46;26.80
31331;BME280;34067;39.548;-76.088;2023-02-22T03:15:26;101150.00;;;9.19;39.77
31331;BME280;34067;39.548;-76.088;2023-02-22T03:18:04;101156.05;;;9.09;37.47
31331;BME280;34067;39.548;-76.088;2023-02-22T03:20:46;101159.57;;;9.39;39.32
31331;BME280;34067;39.548;-76.088;2023-02-22T03:23:22;101156.76;;;8.75;39.83
31331;BME280;34067;39.548;-76.088;2023-02-22T03:25:56;101167.06;;;8.64;39.74
31331;BME280;34067;39.548;-76.088;2023-02-22T03:28:27;101174.56;;;8.31;41.22
31331;BME280;34067;39.548;-76.088;2023-02-22T03:30:59;101176.97;;;8.37;42.75
31331;BME280;34067;39.548;-76.088;2023-02-22T03:33:32;101175.46;;;8.47;42.32
31331;BME280;34067;39.548;-76.088;2023-02-22T03:36:08;101178.55;;;8.04;41.65
31331;BME280;34067;39.548;-76.088;2023-02-22T03:38:40;101179.54;;;8.39;39.69
31331;BME280;34067;39.548;-76.088;2023-02-22T03:41:12;101194.38;;;8.14;44.11
31331;BME280;34067;39.548;-76.088;2023-02-22T03:43:45;101200.51;;;6.29;44.62
31331;BME280;34067;39.548;-76.088;2023-02-22T03:46:16;101202.38;;;8.06;41.74
31331;BME280;34067;39.548;-76.088;2023-02-22T03:48:49;101211.40;;;7.27;39.50
31331;BME280;34067;39.548;-76.088;2023-02-22T03:51:20;101208.88;;;8.05;39.75
31331;BME280;34067;39.548;-76.088;2023-02-22T03:53:49;101209.41;;;7.51;40.53
31331;BME280;34067;39.548;-76.088;2023-02-22T03:56:21;101215.67;;;7.39;40.91
31331;BME280;34067;39.548;-76.088;2023-02-22T03:58:50;101223.26;;;7.83;41.95
31331;BME280;34067;39.548;-76.088;2023-02-22T04:01:18;101230.87;;;7.78;42.72
31331;BME280;34067;39.548;-76.088;2023-02-22T04:03:47;101234.40;;;7.66;43.01
31331;BME280;34067;39.548;-76.088;2023-02-22T04:06:14;101240.46;;;7.00;43.38
31331;BME280;34067;39.548;-76.088;2023-02-22T04:08:43;101242.46;;;7.19;44.11
31331;BME280;34067;39.548;-76.088;2023-02-22T04:11:11;101244.17;;;6.74;45.01
31331;BME280;34067;39.548;-76.088;2023-02-22T04:13:39;101254.77;;;6.53;45.39
31331;BME280;34067;39.548;-76.088;2023-02-22T04:16:08;101259.22;;;6.84;44.98
31331;BME280;34067;39.548;-76.088;2023-02-22T04:18:37;101263.12;;;7.01;45.27
31331;BME280;34067;39.548;-76.088;2023-02-22T04:21:05;101266.24;;;7.07;45.90
31331;BME280;34067;39.548;-76.088;2023-02-22T04:23:33;101257.89;;;6.79;45.77
31331;BME280;34067;39.548;-76.088;2023-02-22T04:26:02;101244.85;;;7.23;45.85
31331;BME280;34067;39.548;-76.088;2023-02-22T04:28:30;101238.87;;;6.57;46.30
31331;BME280;34067;39.548;-76.088;2023-02-22T04:30:58;101241.21;;;7.39;44.63
31331;BME280;34067;39.548;-76.088;2023-02-22T04:33:26;101248.82;;;7.30;44.21
31331;BME280;34067;39.548;-76.088;2023-02-22T04:35:55;101247.22;;;7.00;44.92
31331;BME280;34067;39.548;-76.088;2023-02-22T04:38:23;101252.24;;;6.73;45.39
31331;BME280;34067;39.548;-76.088;2023-02-22T04:40:51;101247.00;;;6.59;47.63
31331;BME280;34067;39.548;-76.088;2023-02-22T04:43:20;101253.96;;;5.98;47.65
31331;BME280;34067;39.548;-76.088;2023-02-22T04:45:48;101252.05;;;6.32;45.31
31331;BME280;34067;39.548;-76.088;2023-02-22T04:48:16;101255.28;;;4.84;46.70
31331;BME280;34067;39.548;-76.088;2023-02-22T04:50:45;101258.38;;;5.33;46.76
31331;BME280;34067;39.548;-76.088;2023-02-22T04:53:13;101257.84;;;5.98;47.34
31331;BME280;34067;39.548;-76.088;2023-02-22T04:55:41;101267.58;;;5.33;48.57
31331;BME280;34067;39.548;-76.088;2023-02-22T04:58:09;101273.04;;;5.06;51.80
31331;BME280;34067;39.548;-76.088;2023-02-22T05:00:38;101283.30;;;4.72;52.70
31331;BME280;34067;39.548;-76.088;2023-02-22T05:03:06;101289.36;;;6.15;51.56
31331;BME280;34067;39.548;-76.088;2023-02-22T05:05:35;101291.81;;;6.29;51.80
31331;BME280;34067;39.548;-76.088;2023-02-22T05:08:03;101307.06;;;5.75;51.91
31331;BME280;34067;39.548;-76.088;2023-02-22T05:10:32;101319.77;;;6.10;51.25
31331;BME280;34067;39.548;-76.088;2023-02-22T05:13:00;101334.40;;;5.24;51.87
31331;BME280;34067;39.548;-76.088;2023-02-22T05:15:27;101335.72;;;5.10;52.48
31331;BME280;34067;39.548;-76.088;2023-02-22T05:17:56;101333.83;;;5.43;51.36
31331;BME280;34067;39.548;-76.088;2023-02-22T05:20:26;101339.32;;;6.31;51.43
31331;BME280;34067;39.548;-76.088;2023-02-22T05:22:57;101336.29;;;5.12;52.44
31331;BME280;34067;39.548;-76.088;2023-02-22T05:25:25;101343.21;;;5.85;51.84
31331;BME280;34067;39.548;-76.088;2023-02-22T05:27:55;101354.49;;;4.64;53.77
31331;BME280;34067;39.548;-76.088;2023-02-22T05:30:26;101356.11;;;4.49;53.68
31331;BME280;34067;39.548;-76.088;2023-02-22T05:32:55;101364.12;;;4.52;54.92
31331;BME280;34067;39.548;-76.088;2023-02-22T05:35:24;101373.56;;;4.04;54.01
31331;BME280;34067;39.548;-76.088;2023-02-22T05:37:52;101381.60;;;4.28;54.68
31331;BME280;34067;39.548;-76.088;2023-02-22T05:40:22;101395.29;;;3.62;53.83
31331;BME280;34067;39.548;-76.088;2023-02-22T05:42:52;101394.34;;;4.37;53.32
31331;BME280;34067;39.548;-76.088;2023-02-22T05:45:23;101395.58;;;5.03;53.61
31331;BME280;34067;39.548;-76.088;2023-02-22T05:47:53;101398.84;;;4.04;55.58
31331;BME280;34067;39.548;-76.088;2023-02-22T05:50:21;101402.12;;;3.85;59.54
31331;BME280;34067;39.548;-76.088;2023-02-22T05:52:50;101409.42;;;4.05;64.45
31331;BME280;34067;39.548;-76.088;2023-02-22T05:55:20;101410.43;;;4.04;65.48
31331;BME280;34067;39.548;-76.088;2023-02-22T05:57:49;101414.53;;;3.23;70.25
31331;BME280;34067;39.548;-76.088;2023-02-22T06:03:14;101417.96;;;3.00;68.91
31331;BME280;34067;39.548;-76.088;2023-02-22T06:05:42;101428.30;;;2.54;70.75
31331;BME280;34067;39.548;-76.088;2023-02-22T06:08:10;101433.27;;;2.65;70.27
31331;BME280;34067;39.548;-76.088;2023-02-22T06:10:38;101427.88;;;3.67;62.00
31331;BME280;34067;39.548;-76.088;2023-02-22T06:13:06;101436.33;;;3.83;58.22
31331;BME280;34067;39.548;-76.088;2023-02-22T06:15:35;101446.56;;;2.80;59.42
31331;BME280;34067;39.548;-76.088;2023-02-22T06:18:03;101462.80;;;3.37;60.24
31331;BME280;34067;39.548;-76.088;2023-02-22T06:20:31;101464.47;;;3.87;59.21
31331;BME280;34067;39.548;-76.088;2023-02-22T06:22:59;101470.10;;;3.67;59.55
31331;BME280;34067;39.548;-76.088;2023-02-22T06:25:29;101480.08;;;2.51;61.93
31331;BME280;34067;39.548;-76.088;2023-02-22T06:27:58;101475.15;;;3.83;59.96
31331;BME280;34067;39.548;-76.088;2023-02-22T06:30:27;101471.49;;;4.70;58.72
31331;BME280;34067;39.548;-76.088;2023-02-22T06:32:55;101478.40;;;4.34;62.83
31331;BME280;34067;39.548;-76.088;2023-02-22T06:35:23;101492.79;;;3.21;64.51
31331;BME280;34067;39.548;-76.088;2023-02-22T06:37:51;101497.91;;;4.25;61.20
31331;BME280;34067;39.548;-76.088;2023-02-22T06:40:20;101507.51;;;2.90;67.34
31331;BME280;34067;39.548;-76.088;2023-02-22T06:42:48;101504.94;;;2.35;68.59
31331;BME280;34067;39.548;-76.088;2023-02-22T06:45:17;101502.89;;;3.09;65.54
31331;BME280;34067;39.548;-76.088;2023-02-22T06:47:45;101494.72;;;2.97;66.65
31331;BME280;34067;39.548;-76.088;2023-02-22T06:50:19;101499.26;;;2.70;66.96
31331;BME280;34067;39.548;-76.088;2023-02-22T06:52:48;101500.18;;;2.52;64.83
31331;BME280;34067;39.548;-76.088;2023-02-22T06:55:18;101507.40;;;3.63;62.40
31331;BME280;34067;39.548;-76.088;2023-02-22T06:57:47;101519.18;;;2.18;64.50
31331;BME280;34067;39.548;-76.088;2023-02-22T07:00:17;101523.38;;;2.44;62.86
31331;BME280;34067;39.548;-76.088;2023-02-22T07:02:46;101523.79;;;2.43;61.68
31331;BME280;34067;39.548;-76.088;2023-02-22T07:05:15;101525.22;;;2.77;60.20
31331;BME280;34067;39.548;-76.088;2023-02-22T07:07:44;101529.78;;;3.43;59.26
31331;BME280;34067;39.548;-76.088;2023-02-22T07:10:17;101530.65;;;3.21;58.66
31331;BME280;34067;39.548;-76.088;2023-02-22T07:12:46;101536.10;;;3.38;57.92
31331;BME280;34067;39.548;-76.088;2023-02-22T07:15:14;101541.83;;;1.84;62.63
31331;BME280;34067;39.548;-76.088;2023-02-22T07:17:42;101535.76;;;3.83;59.86
31331;BME280;34067;39.548;-76.088;2023-02-22T07:20:10;101530.99;;;2.80;61.33
31331;BME280;34067;39.548;-76.088;2023-02-22T07:22:39;101523.70;;;3.22;62.75
31331;BME280;34067;39.548;-76.088;2023-02-22T07:25:08;101532.68;;;3.51;61.22
31331;BME280;34067;39.548;-76.088;2023-02-22T07:27:37;101519.47;;;3.23;61.39
31331;BME280;34067;39.548;-76.088;2023-02-22T07:30:07;101528.87;;;4.18;63.00
31331;BME280;34067;39.548;-76.088;2023-02-22T07:32:35;101532.07;;;3.05;66.29
31331;BME280;34067;39.548;-76.088;2023-02-22T07:35:02;101532.61;;;2.45;69.16
31331;BME280;34067;39.548;-76.088;2023-02-22T07:37:30;101530.81;;;2.79;67.94
31331;BME280;34067;39.548;-76.088;2023-02-22T07:39:58;101533.80;;;3.56;65.54
31331;BME280;34067;39.548;-76.088;2023-02-22T07:42:25;101532.72;;;1.20;67.04
31331;BME280;34067;39.548;-76.088;2023-02-22T07:44:53;101530.12;;;1.77;70.63
31331;BME280;34067;39.548;-76.088;2023-02-22T07:47:20;101530.95;;;2.29;69.91
31331;BME280;34067;39.548;-76.088;2023-02-22T07:49:49;101531.60;;;2.61;66.90
31331;BME280;34067;39.548;-76.088;2023-02-22T07:52:17;101536.93;;;2.07;66.27
31331;BME280;34067;39.548;-76.088;2023-02-22T07:54:45;101537.24;;;2.47;62.99
31331;BME280;34067;39.548;-76.088;2023-02-22T07:57:14;101534.51;;;2.17;62.88
31331;BME280;34067;39.548;-76.088;2023-02-22T07:59:44;101519.84;;;2.58;61.09
31331;BME280;34067;39.548;-76.088;2023-02-22T08:02:15;101524.46;;;1.74;63.17
31331;BME280;34067;39.548;-76.088;2023-02-22T08:04:43;101528.97;;;1.25;72.46
31331;BME280;34067;39.548;-76.088;2023-02-22T08:07:11;101537.77;;;1.21;68.97
31331;BME280;34067;39.548;-76.088;2023-02-22T08:09:38;101541.70;;;3.13;67.72
31331;BME280;34067;39.548;-76.088;2023-02-22T08:12:06;101533.28;;;2.93;64.74
31331;BME280;34067;39.548;-76.088;2023-02-22T08:14:34;101541.43;;;1.19;66.60
31331;BME280;34067;39.548;-76.088;2023-02-22T08:17:02;101549.81;;;2.01;70.75
31331;BME280;34067;39.548;-76.088;2023-02-22T08:19:30;101561.04;;;2.82;71.43
31331;BME280;34067;39.548;-76.088;2023-02-22T08:21:57;101559.33;;;1.18;77.01
31331;BME280;34067;39.548;-76.088;2023-02-22T08:24:25;101552.35;;;1.33;75.79
31331;BME280;34067;39.548;-76.088;2023-02-22T08:26:52;101540.73;;;1.39;74.61
31331;BME280;34067;39.548;-76.088;2023-02-22T08:29:21;101537.54;;;1.59;75.89
31331;BME280;34067;39.548;-76.088;2023-02-22T08:31:50;101545.77;;;2.09;76.45
31331;BME280;34067;39.548;-76.088;2023-02-22T08:34:19;101530.43;;;0.81;77.80
31331;BME280;34067;39.548;-76.088;2023-02-22T08:36:47;101520.09;;;1.04;76.68
31331;BME280;34067;39.548;-76.088;2023-02-22T08:39:14;101528.14;;;0.22;77.64
31331;BME280;34067;39.548;-76.088;2023-02-22T08:41:42;101535.37;;;0.53;83.39
31331;BME280;34067;39.548;-76.088;2023-02-22T08:44:09;101551.99;;;0.67;77.96
31331;BME280;34067;39.548;-76.088;2023-02-22T08:46:37;101588.02;;;0.55;77.15
31331;BME280;34067;39.548;-76.088;2023-02-22T08:49:05;101622.71;;;0.72;74.68
31331;BME280;34067;39.548;-76.088;2023-02-22T08:51:34;101648.49;;;1.60;70.52
31331;BME280;34067;39.548;-76.088;2023-02-22T08:54:02;101661.21;;;2.47;68.85
31331;BME280;34067;39.548;-76.088;2023-02-22T08:56:29;101673.67;;;1.59;69.08
31331;BME280;34067;39.548;-76.088;2023-02-22T08:58:57;101674.40;;;3.56;66.02
31331;BME280;34067;39.548;-76.088;2023-02-22T09:01:25;101691.68;;;1.41;66.59
31331;BME280;34067;39.548;-76.088;2023-02-22T09:03:53;101683.51;;;2.53;66.52
31331;BME280;34067;39.548;-76.088;2023-02-22T09:06:22;101676.13;;;2.58;69.42
31331;BME280;34067;39.548;-76.088;2023-02-22T09:08:50;101682.44;;;2.01;72.17
31331;BME280;34067;39.548;-76.088;2023-02-22T09:11:18;101694.51;;;0.73;78.62
31331;BME280;34067;39.548;-76.088;2023-02-22T09:13:47;101691.86;;;1.04;75.61
31331;BME280;34067;39.548;-76.088;2023-02-22T09:16:15;101696.24;;;-0.24;78.61
31331;BME280;34067;39.548;-76.088;2023-02-22T09:18:43;101696.87;;;-0.43;83.09
31331;BME280;34067;39.548;-76.088;2023-02-22T09:21:11;101698.35;;;-0.58;88.34
31331;BME280;34067;39.548;-76.088;2023-02-22T09:23:39;101695.06;;;0.02;89.23
31331;BME280;34067;39.548;-76.088;2023-02-22T09:26:07;101700.84;;;-0.45;91.56
31331;BME280;34067;39.548;-76.088;2023-02-22T09:28:36;101709.80;;;-0.02;92.48
31331;BME280;34067;39.548;-76.088;2023-02-22T09:31:04;101719.28;;;0.26;89.04
31331;BME280;34067;39.548;-76.088;2023-02-22T09:33:32;101711.36;;;-0.70;89.20
31331;BME280;34067;39.548;-76.088;2023-02-22T09:36:02;101698.26;;;-0.51;89.99
31331;BME280;34067;39.548;-76.088;2023-02-22T09:38:29;101697.28;;;-0.57;90.12
31331;BME280;34067;39.548;-76.088;2023-02-22T09:41:09;101695.09;;;-1.26;91.07
31331;BME280;34067;39.548;-76.088;2023-02-22T09:43:44;101684.26;;;-0.77;86.49
31331;BME280;34067;39.548;-76.088;2023-02-22T09:46:24;101683.93;;;-0.25;84.78
31331;BME280;34067;39.548;-76.088;2023-02-22T09:48:59;101695.87;;;-1.09;85.45
31331;BME280;34067;39.548;-76.088;2023-02-22T09:51:36;101699.83;;;-1.60;85.25
31331;BME280;34067;39.548;-76.088;2023-02-22T09:54:20;101702.34;;;-0.73;83.33
31331;BME280;34067;39.548;-76.088;2023-02-22T09:56:52;101696.45;;;-1.44;82.38
31331;BME280;34067;39.548;-76.088;2023-02-22T09:59:26;101706.97;;;-0.37;85.42
31331;BME280;34067;39.548;-76.088;2023-02-22T10:02:04;101708.13;;;-0.08;82.85
31331;BME280;34067;39.548;-76.088;2023-02-22T10:04:44;101700.60;;;0.41;75.34
31331;BME280;34067;39.548;-76.088;2023-02-22T10:07:19;101695.42;;;1.13;72.22
31331;BME280;34067;39.548;-76.088;2023-02-22T10:09:49;101701.53;;;2.07;69.59
31331;BME280;34067;39.548;-76.088;2023-02-22T10:12:28;101706.02;;;3.42;65.76
31331;BME280;34067;39.548;-76.088;2023-02-22T10:15:16;101702.87;;;3.67;62.55
31331;BME280;34067;39.548;-76.088;2023-02-22T10:17:59;101711.19;;;3.38;56.67
31331;BME280;34067;39.548;-76.088;2023-02-22T10:20:44;101720.99;;;4.35;54.22
31331;BME280;34067;39.548;-76.088;2023-02-22T10:23:19;101710.63;;;3.45;59.88
31331;BME280;34067;39.548;-76.088;2023-02-22T10:25:54;101693.39;;;2.91;66.14
31331;BME280;34067;39.548;-76.088;2023-02-22T10:28:29;101708.19;;;2.21;67.01
31331;BME280;34067;39.548;-76.088;2023-02-22T10:31:04;101711.62;;;1.69;67.68
31331;BME280;34067;39.548;-76.088;2023-02-22T10:33:38;101712.40;;;1.30;65.60
31331;BME280;34067;39.548;-76.088;2023-02-22T10:36:16;101713.66;;;2.76;65.76
31331;BME280;34067;39.548;-76.088;2023-02-22T10:38:50;101708.71;;;3.25;65.33
31331;BME280;34067;39.548;-76.088;2023-02-22T10:41:26;101699.76;;;0.33;72.10
31331;BME280;34067;39.548;-76.088;2023-02-22T10:43:56;101691.72;;;0.88;75.51
31331;BME280;34067;39.548;-76.088;2023-02-22T10:46:27;101694.68;;;1.50;76.07
31331;BME280;34067;39.548;-76.088;2023-02-22T10:49:02;101696.95;;;-0.09;81.48
31331;BME280;34067;39.548;-76.088;2023-02-22T10:51:31;101691.55;;;1.03;77.65
31331;BME280;34067;39.548;-76.088;2023-02-22T10:54:18;101690.26;;;3.52;70.61
31331;BME280;34067;39.548;-76.088;2023-02-22T10:56:49;101677.22;;;1.73;65.59
31331;BME280;34067;39.548;-76.088;2023-02-22T10:59:34;101675.85;;;2.20;63.94
31331;BME280;34067;39.548;-76.088;2023-02-22T11:02:17;101716.06;;;2.39;63.80
31331;BME280;34067;39.548;-76.088;2023-02-22T11:04:48;101723.45;;;3.33;62.17
31331;BME280;34067;39.548;-76.088;2023-02-22T11:07:21;101734.27;;;4.62;58.60
31331;BME280;34067;39.548;-76.088;2023-02-22T11:09:52;101739.44;;;4.97;54.05
31331;BME280;34067;39.548;-76.088;2023-02-22T11:12:25;101742.27;;;3.96;50.92
31331;BME280;34067;39.548;-76.088;2023-02-22T11:14:54;101734.52;;;4.41;48.85
31331;BME280;34067;39.548;-76.088;2023-02-22T11:17:28;101726.71;;;4.48;44.43
31331;BME280;34067;39.548;-76.088;2023-02-22T11:19:58;101732.33;;;4.43;46.42
31331;BME280;34067;39.548;-76.088;2023-02-22T11:22:29;101743.07;;;5.55;47.69
31331;BME280;34067;39.548;-76.088;2023-02-22T11:25:01;101735.07;;;5.74;46.51
31331;BME280;34067;39.548;-76.088;2023-02-22T11:27:34;101730.55;;;5.47;46.31
31331;BME280;34067;39.548;-76.088;2023-02-22T11:30:19;101732.61;;;5.19;46.96
31331;BME280;34067;39.548;-76.088;2023-02-22T11:32:51;101738.04;;;6.38;46.72
31331;BME280;34067;39.548;-76.088;2023-02-22T11:35:33;101755.74;;;5.99;47.07
31331;BME280;34067;39.548;-76.088;2023-02-22T11:38:29;101766.53;;;6.23;46.80
31331;BME280;34067;39.548;-76.088;2023-02-22T11:41:12;101764.99;;;5.91;46.23
31331;BME280;34067;39.548;-76.088;2023-02-22T11:43:40;101750.60;;;5.74;44.85
31331;BME280;34067;39.548;-76.088;2023-02-22T11:46:13;101758.56;;;5.95;43.96
31331;BME280;34067;39.548;-76.088;2023-02-22T11:48:53;101765.49;;;5.80;44.17
31331;BME280;34067;39.548;-76.088;2023-02-22T11:51:36;101771.37;;;5.79;43.29
31331;BME280;34067;39.548;-76.088;2023-02-22T11:54:20;101784.58;;;5.72;42.47
31331;BME280;34067;39.548;-76.088;2023-02-22T11:56:51;101799.30;;;6.51;40.37
31331;BME280;34067;39.548;-76.088;2023-02-22T11:59:30;101816.86;;;6.38;41.31
31331;BME280;34067;39.548;-76.088;2023-02-22T12:02:13;101795.48;;;5.90;40.32
31331;BME280;34067;39.548;-76.088;2023-02-22T12:05:02;101769.75;;;5.58;39.19
31331;BME280;34067;39.548;-76.088;2023-02-22T12:07:47;101795.80;;;6.14;39.11
31331;BME280;34067;39.548;-76.088;2023-02-22T12:10:25;101822.22;;;6.22;39.18
31331;BME280;34067;39.548;-76.088;2023-02-22T12:13:08;101782.66;;;5.22;38.30
31331;BME280;34067;39.548;-76.088;2023-02-22T12:15:46;101765.72;;;5.88;38.08
31331;BME280;34067;39.548;-76.088;2023-02-22T12:18:25;101785.04;;;6.10;36.89
31331;BME280;34067;39.548;-76.088;2023-02-22T12:20:59;101768.08;;;5.63;37.35
31331;BME280;34067;39.548;-76.088;2023-02-22T12:23:35;101746.88;;;5.25;38.08
31331;BME280;34067;39.548;-76.088;2023-02-22T12:26:11;101737.42;;;6.00;38.21
31331;BME280;34067;39.548;-76.088;2023-02-22T12:28:44;101732.86;;;5.37;38.11
31331;BME280;34067;39.548;-76.088;2023-02-22T12:31:19;101734.98;;;5.64;37.98
31331;BME280;34067;39.548;-76.088;2023-02-22T12:33:55;101755.03;;;5.13;38.75
31331;BME280;34067;39.548;-76.088;2023-02-22T12:36:32;101748.98;;;5.72;38.44
31331;BME280;34067;39.548;-76.088;2023-02-22T12:39:10;101771.89;;;5.96;38.51
31331;BME280;34067;39.548;-76.088;2023-02-22T12:41:54;101777.90;;;6.28;37.78
31331;BME280;34067;39.548;-76.088;2023-02-22T12:44:27;101782.10;;;6.47;38.85
31331;BME280;34067;39.548;-76.088;2023-02-22T12:46:58;101778.09;;;6.30;40.22
31331;BME280;34067;39.548;-76.088;2023-02-22T12:49:32;101801.26;;;7.22;40.71
31331;BME280;34067;39.548;-76.088;2023-02-22T12:52:09;101826.10;;;6.95;39.73
31331;BME280;34067;39.548;-76.088;2023-02-22T12:54:43;101854.75;;;6.29;39.81
31331;BME280;34067;39.548;-76.088;2023-02-22T12:57:22;101866.13;;;7.22;40.12
31331;BME280;34067;39.548;-76.088;2023-02-22T12:59:53;101869.59;;;7.13;39.26
31331;BME280;34067;39.548;-76.088;2023-02-22T13:02:29;101870.46;;;7.04;40.08
31331;BME280;34067;39.548;-76.088;2023-02-22T13:05:00;101861.55;;;6.31;41.01